Joan Cenac — WDD5325 — position and weather

sailwx.info

Track history (hours):
 
Tides and Currents Weather Stations Pressure Air Temp Water Temp Dewpoint Dewpoint Depression Visibility Wind Speed Wind Dir Waves Ship Positions

Joan Cenac

Owner: Caillou Island Towing Co., Inc., Houma, LA. More information available from US FCC via Universal Licensing System and Coast Guard Vessel Documentation Center.

Last reported at 2018-May-25 02:14 UTC. Time now 2018-May-27 03:19 UTC.
Position N 29°33' W 090°24'.

Length 30 m; draft 2.5 m.

Type: Towing. MMSI: 367156710.

Date/timePositionNaut miles runAvg speedWind from/ knotsBaromVisibWave heightAir tempDewpointWater temp
2018-May-25 02:14N 29°33' W 090°24'2 7.6
2018-May-25 02:00N 29°33' W 090°26'4 7.7
2018-May-25 01:30N 29°34' W 090°30'4 7.5
2018-May-25 01:00N 29°34' W 090°35'3 6.8
2018-May-25 00:30N 29°35' W 090°38'4 7.3
2018-May-25 00:00N 29°37' W 090°42'3 6.6
2018-May-24 23:30N 29°34' W 090°43'1 1.5
2018-May-24 23:00N 29°34' W 090°43'0 0.0
2018-May-22 19:32N 29°34' W 090°43'0 0.0
2018-May-22 19:30N 29°34' W 090°43'0 0.0
2018-May-22 19:00N 29°34' W 090°43'0 0.0
2018-May-22 18:31N 29°34' W 090°43'0 0.0
2018-May-22 18:00N 29°34' W 090°43'0 0.0
2018-May-22 17:30N 29°34' W 090°43'0 0.0
2018-May-22 17:00N 29°34' W 090°43'0 0.0
2018-May-22 16:30N 29°34' W 090°43'0 0.0
2018-May-22 16:00N 29°34' W 090°43'0 0.0
2018-May-22 15:30N 29°34' W 090°43'0 0.0
2018-May-22 15:00N 29°34' W 090°43'0 0.0
2018-May-22 14:30N 29°34' W 090°43'0 0.0
2018-May-22 14:00N 29°34' W 090°43'0 0.0
2018-May-22 13:30N 29°34' W 090°43'0 0.0
2018-May-22 13:00N 29°34' W 090°43'0 0.0
2018-May-22 12:30N 29°34' W 090°43'0 0.0
2018-May-22 12:00N 29°34' W 090°43'0 0.0
2018-May-22 11:30N 29°34' W 090°43'0 0.0
2018-May-22 11:00N 29°34' W 090°43'0 0.0
2018-May-22 10:31N 29°34' W 090°43'0 0.0
2018-May-22 10:00N 29°34' W 090°43'0 0.0
2018-May-22 09:30N 29°34' W 090°43'0 0.0
2018-May-22 09:00N 29°34' W 090°43'0 0.0
2018-May-22 08:30N 29°34' W 090°43'0 0.0
2018-May-22 08:00N 29°34' W 090°43'0 0.0
2018-May-22 07:30N 29°34' W 090°43'0 0.0
2018-May-22 07:01N 29°34' W 090°43'0 0.0
2018-May-22 06:31N 29°34' W 090°43'0 0.0
2018-May-22 06:00N 29°34' W 090°43'0 0.0
2018-May-22 05:31N 29°34' W 090°43'0 0.0
2018-May-22 05:01N 29°34' W 090°43'0 0.0
2018-May-22 04:30N 29°34' W 090°43'0 0.0
2018-May-22 04:00N 29°34' W 090°43'0 0.0
2018-May-22 03:30N 29°34' W 090°43'0 0.0
2018-May-22 03:00N 29°34' W 090°43'0 0.0
2018-May-22 02:31N 29°34' W 090°43'0 0.0
2018-May-22 02:00N 29°34' W 090°43'0 0.0
2018-May-22 01:30N 29°34' W 090°43'0 0.0
2018-May-22 01:00N 29°34' W 090°43'0 0.0
2018-May-22 00:29N 29°34' W 090°43'0 0.0
2018-May-22 00:00N 29°34' W 090°43'0 0.0
2018-May-21 23:30N 29°34' W 090°43'0 0.0
2018-May-21 23:00N 29°34' W 090°43'0 0.0
2018-May-21 22:31N 29°34' W 090°43'0 0.0
2018-May-21 22:00N 29°34' W 090°43'0 0.0
2018-May-21 21:30N 29°34' W 090°43'0 0.0
2018-May-21 21:00N 29°34' W 090°43'0 0.0
2018-May-21 20:30N 29°34' W 090°43'0 0.0
2018-May-21 20:00N 29°34' W 090°43'0 0.0
2018-May-21 19:30N 29°34' W 090°43'0 0.0
2018-May-21 19:00N 29°34' W 090°43'0 0.0
2018-May-21 18:30N 29°34' W 090°43'0 0.0
2018-May-20 05:40N 29°34' W 090°43'0 0.0
2018-May-20 05:30N 29°34' W 090°43'0 0.0
2018-May-20 05:00N 29°34' W 090°43'0 0.0
2018-May-20 04:30N 29°34' W 090°43'0 0.0
2018-May-20 04:00N 29°34' W 090°43'0 0.0
2018-May-20 03:30N 29°34' W 090°43'0 0.0
2018-May-20 03:00N 29°34' W 090°43'0 0.0
2018-May-20 02:30N 29°34' W 090°43'0 0.0
2018-May-20 02:00N 29°34' W 090°43'0 0.0
2018-May-20 01:30N 29°34' W 090°43'0 0.0
2018-May-20 01:00N 29°34' W 090°43'0 0.0
2018-May-20 00:30N 29°34' W 090°43'0 0.0
2018-May-20 00:00N 29°34' W 090°43'0 0.0
2018-May-19 23:30N 29°34' W 090°43'0 0.0
2018-May-19 23:00N 29°34' W 090°43'0 0.0
2018-May-19 22:30N 29°34' W 090°43'0 0.0
2018-May-19 22:00N 29°34' W 090°43'0 0.0
2018-May-19 21:30N 29°34' W 090°43'0 0.0
2018-May-19 21:00N 29°34' W 090°43'0 0.0
2018-May-19 20:30N 29°34' W 090°43'0 0.0
2018-May-19 20:00N 29°34' W 090°43'0 0.0
2018-May-19 19:30N 29°34' W 090°43'0 0.0
2018-May-19 19:00N 29°34' W 090°43'0 0.0
2018-May-19 18:30N 29°34' W 090°43'0 0.0
2018-May-19 18:00N 29°34' W 090°43'0 0.0
2018-May-19 17:30N 29°34' W 090°43'0 0.0
2018-May-19 17:00N 29°34' W 090°43'0 0.0
2018-May-19 16:30N 29°34' W 090°43'0 0.0
2018-May-19 16:00N 29°34' W 090°43'0 0.0
2018-May-19 15:30N 29°34' W 090°43'0 0.0
2018-May-19 15:00N 29°34' W 090°43'0 0.0
2018-May-19 14:30N 29°34' W 090°43'0 0.0
2018-May-19 14:00N 29°34' W 090°43'0 0.0
2018-May-19 13:30N 29°34' W 090°43'0 0.0
2018-May-19 13:00N 29°34' W 090°43'0 0.0
2018-May-19 12:30N 29°34' W 090°43'0 0.0
2018-May-19 12:00N 29°34' W 090°43'0 0.0
2018-May-19 11:30N 29°34' W 090°43'0 0.0
2018-May-19 11:00N 29°34' W 090°43'0 0.0
2018-May-19 10:30N 29°34' W 090°43'0 0.0
2018-May-19 10:00N 29°34' W 090°43'0 0.0
2018-May-19 09:30N 29°34' W 090°43'0 0.0
2018-May-19 09:00N 29°34' W 090°43'0 0.0
2018-May-19 08:30N 29°34' W 090°43'0 0.0
2018-May-19 08:00N 29°34' W 090°43'0 0.0
2018-May-19 07:30N 29°34' W 090°43'0 0.0
2018-May-19 07:00N 29°34' W 090°43'0 0.0
2018-May-19 06:30N 29°34' W 090°43'0 0.0
2018-May-19 06:00N 29°34' W 090°43'0 0.0
2018-May-19 05:30N 29°34' W 090°43'0 0.0
2018-May-19 05:00N 29°34' W 090°43'0 0.0
2018-May-19 04:30N 29°34' W 090°43'0 0.0
2018-May-19 04:00N 29°34' W 090°43'0 0.0
2018-May-19 03:30N 29°34' W 090°43'0 0.0
2018-May-19 03:00N 29°34' W 090°43'0 0.0
2018-May-19 02:27N 29°34' W 090°43'0 0.0
2018-May-19 02:00N 29°34' W 090°43'0 0.0
2018-May-19 01:30N 29°34' W 090°43'0 0.0
2018-May-19 01:00N 29°34' W 090°43'0 0.0
2018-May-19 00:30N 29°34' W 090°43'0 0.0
2018-May-19 00:00N 29°34' W 090°43'0 0.0
2018-May-18 23:29N 29°34' W 090°43'0 0.0
2018-May-18 23:00N 29°34' W 090°43'0 0.0
2018-May-18 22:30N 29°34' W 090°43'0 0.0
2018-May-18 22:00N 29°34' W 090°43'0 0.0
2018-May-18 21:30N 29°34' W 090°43'0 0.0
2018-May-18 21:00N 29°34' W 090°43'0 0.0
2018-May-18 20:30N 29°34' W 090°43'0 0.0
2018-May-18 20:00N 29°34' W 090°43'0 0.0
2018-May-18 19:30N 29°34' W 090°43'0 0.0
2018-May-18 19:00N 29°34' W 090°43'0 0.0
2018-May-18 18:30N 29°34' W 090°43'0 0.0
2018-May-18 18:00N 29°34' W 090°43'0 0.0
2018-May-18 17:30N 29°34' W 090°43'0 0.0
2018-May-18 17:00N 29°34' W 090°43'0 0.0
2018-May-18 16:30N 29°34' W 090°43'0 0.0
2018-May-18 16:00N 29°34' W 090°43'0 0.0
2018-May-18 15:30N 29°34' W 090°43'0 0.0
2018-May-18 15:00N 29°34' W 090°43'0 0.0
2018-May-18 14:30N 29°34' W 090°43'0 0.0
2018-May-18 14:00N 29°34' W 090°43'0 0.0
2018-May-18 13:30N 29°34' W 090°43'0 0.0
2018-May-18 13:00N 29°34' W 090°43'0 0.0
2018-May-18 12:30N 29°34' W 090°43'0 0.0
2018-May-18 12:00N 29°34' W 090°43'0 0.0
2018-May-18 11:30N 29°34' W 090°43'0 0.0
2018-May-18 11:00N 29°34' W 090°43'0 0.0
2018-May-18 10:30N 29°34' W 090°43'0 0.0
2018-May-18 10:00N 29°34' W 090°43'0 0.0
2018-May-18 09:30N 29°34' W 090°43'0 0.0
2018-May-18 09:00N 29°34' W 090°43'0 0.0
2018-May-18 08:30N 29°34' W 090°43'0 0.0
2018-May-18 08:00N 29°34' W 090°43'0 0.0
2018-May-18 07:30N 29°34' W 090°43'0 0.0
2018-May-18 07:00N 29°34' W 090°43'0 0.0
2018-May-18 06:30N 29°34' W 090°43'0 0.0
2018-May-18 06:00N 29°34' W 090°43'0 0.0
2018-May-18 05:30N 29°34' W 090°43'0 0.0
2018-May-18 05:00N 29°34' W 090°43'0 0.0
2018-May-18 04:30N 29°34' W 090°43'0 0.0
2018-May-18 04:00N 29°34' W 090°43'0 0.0
2018-May-18 03:30N 29°34' W 090°43'0 0.0
2018-May-18 03:00N 29°34' W 090°43'0 0.0
2018-May-18 02:28N 29°34' W 090°43'0 0.0
2018-May-18 02:00N 29°34' W 090°43'0 0.0
2018-May-18 01:30N 29°34' W 090°43'0 0.0
2018-May-18 01:01N 29°34' W 090°43'0 0.0
2018-May-18 00:31N 29°34' W 090°43'0 0.0
2018-May-18 00:01N 29°34' W 090°43'0 0.0
2018-May-17 23:30N 29°34' W 090°43'0 0.0
2018-May-17 23:01N 29°34' W 090°43'0 0.0
2018-May-17 22:30N 29°34' W 090°43'0 0.0
2018-May-17 22:00N 29°34' W 090°43'0 0.0
2018-May-17 21:31N 29°34' W 090°43'0 0.0
2018-May-17 21:00N 29°34' W 090°43'0 0.0
2018-May-17 20:30N 29°34' W 090°43'0 0.0
2018-May-17 20:00N 29°34' W 090°43'0 0.0
2018-May-17 19:31N 29°34' W 090°43'0 0.0
2018-May-17 19:01N 29°34' W 090°43'0 0.0
2018-May-17 18:31N 29°34' W 090°43'0 0.0
2018-May-17 18:00N 29°34' W 090°43'0 0.0
2018-May-17 17:31N 29°34' W 090°43'0 0.0
2018-May-17 17:01N 29°34' W 090°43'0 0.0
2018-May-17 16:31N 29°34' W 090°43'0 0.0
2018-May-17 16:01N 29°34' W 090°43'0 0.0
2018-May-17 15:31N 29°34' W 090°43'0 0.0
2018-May-17 15:00N 29°34' W 090°43'0 0.0
2018-May-17 14:30N 29°34' W 090°43'0 0.0
2018-May-17 14:01N 29°34' W 090°43'0 0.0
2018-May-17 13:31N 29°34' W 090°43'0 0.0
2018-May-17 13:00N 29°34' W 090°43'0 0.0
2018-May-17 12:30N 29°34' W 090°43'0 0.0
2018-May-17 12:01N 29°34' W 090°43'0 0.0
2018-May-17 11:30N 29°34' W 090°43'0 0.0
2018-May-17 11:00N 29°34' W 090°43'0 0.0
2018-May-17 10:30N 29°34' W 090°43'0 0.0
2018-May-17 10:01N 29°34' W 090°43'0 0.0
2018-May-17 09:30N 29°34' W 090°43'0 0.0
2018-May-17 09:00N 29°34' W 090°43'0 0.0
2018-May-17 08:31N 29°34' W 090°43'0 0.0
2018-May-17 08:01N 29°34' W 090°43'0 0.0
2018-May-17 07:30N 29°34' W 090°43'0 0.0
2018-May-17 07:00N 29°34' W 090°43'0 0.0
2018-May-17 06:31N 29°34' W 090°43'0 0.0
2018-May-17 06:00N 29°34' W 090°43'0 0.0
2018-May-17 05:30N 29°34' W 090°43'0 0.0
2018-May-17 05:00N 29°34' W 090°43'0 0.0
2018-May-17 04:30N 29°34' W 090°43'0 0.0
2018-May-17 04:00N 29°34' W 090°43'0 0.0
2018-May-17 03:30N 29°34' W 090°43'0 0.0
2018-May-17 03:01N 29°34' W 090°43'0 0.0
2018-May-17 02:30N 29°34' W 090°43'0 0.0
2018-May-17 02:00N 29°34' W 090°43'0 0.0
2018-May-17 01:30N 29°34' W 090°43'0 0.0
2018-May-17 01:00N 29°34' W 090°43'0 0.0
2018-May-17 00:30N 29°34' W 090°43'0 0.0
2018-May-17 00:00N 29°34' W 090°43'0 0.0
2018-May-16 23:30N 29°34' W 090°43'0 0.0
2018-May-16 23:00N 29°34' W 090°43'0 0.0
2018-May-16 22:30N 29°34' W 090°43'0 0.0
2018-May-16 22:00N 29°34' W 090°43'0 0.0
2018-May-16 21:30N 29°34' W 090°43'0 0.0
2018-May-16 21:00N 29°34' W 090°43'0 0.0
2018-May-16 20:30N 29°34' W 090°43'0 0.0
2018-May-16 20:00N 29°34' W 090°43'0 0.0
2018-May-16 19:30N 29°34' W 090°43'0 0.0
2018-May-16 19:00N 29°34' W 090°43'0 0.0
2018-May-16 18:30N 29°34' W 090°43'0 0.0
2018-May-16 18:00N 29°34' W 090°43'0 0.0
2018-May-16 17:30N 29°34' W 090°43'0 0.0
2018-May-16 17:00N 29°34' W 090°43'0 0.0
2018-May-16 16:29N 29°34' W 090°43'0 0.0
2018-May-16 16:00N 29°34' W 090°43'0 0.0
2018-May-16 15:30N 29°34' W 090°43'0 0.0
2018-May-16 15:00N 29°34' W 090°43'0 0.0
2018-May-16 14:30N 29°34' W 090°43'0 0.0
2018-May-16 14:00N 29°34' W 090°43'0 0.0
2018-May-16 13:30N 29°34' W 090°43'0 0.0
2018-May-16 13:00N 29°34' W 090°43'0 0.0
2018-May-16 12:30N 29°34' W 090°43'0 0.0
2018-May-16 12:00N 29°34' W 090°43'0 0.0
2018-May-16 11:30N 29°34' W 090°43'0 0.0
2018-May-16 11:00N 29°34' W 090°43'0 0.0
2018-May-16 10:30N 29°34' W 090°43'0 0.0
2018-May-16 10:00N 29°34' W 090°43'0 0.0
2018-May-16 09:30N 29°34' W 090°43'0 0.0
2018-May-16 09:00N 29°34' W 090°43'0 0.0
2018-May-16 08:30N 29°34' W 090°43'0 0.0
2018-May-16 08:00N 29°34' W 090°43'0 0.0
2018-May-16 07:30N 29°34' W 090°43'0 0.0
2018-May-16 07:00N 29°34' W 090°43'0 0.0
2018-May-16 06:30N 29°34' W 090°43'0 0.0
2018-May-16 06:00N 29°34' W 090°43'0 0.0
2018-May-16 05:30N 29°34' W 090°43'0 0.0
2018-May-16 05:00N 29°34' W 090°43'0 0.0
2018-May-16 04:30N 29°34' W 090°43'0 0.0
2018-May-16 04:00N 29°34' W 090°43'0 0.0
2018-May-16 03:30N 29°34' W 090°43'0 0.0
2018-May-16 03:00N 29°34' W 090°43'0 0.0
2018-May-16 02:30N 29°34' W 090°43'0 0.0
2018-May-16 02:00N 29°34' W 090°43'0 0.0
2018-May-16 01:30N 29°34' W 090°43'0 0.0
2018-May-16 01:00N 29°34' W 090°43'0 0.0
2018-May-16 00:30N 29°34' W 090°43'0 0.0
2018-May-16 00:00N 29°34' W 090°43'0 0.0
2018-May-15 23:30N 29°34' W 090°43'0 0.0
2018-May-15 23:00N 29°34' W 090°43'0 0.0
2018-May-15 22:30N 29°34' W 090°43'0 0.0
2018-May-15 22:00N 29°34' W 090°43'0 0.0
2018-May-15 21:30N 29°34' W 090°43'0 0.0
2018-May-15 21:00N 29°34' W 090°43'0 0.0
2018-May-15 20:30N 29°34' W 090°43'0 0.0
2018-May-15 20:00N 29°34' W 090°43'0 0.0
2018-May-15 19:30N 29°34' W 090°43'0 0.0
2018-May-15 19:00N 29°34' W 090°43'0 0.0
2018-May-15 18:30N 29°34' W 090°43'0 0.0
2018-May-15 18:00N 29°34' W 090°43'0 0.0
2018-May-15 17:30N 29°34' W 090°43'0 0.0
2018-May-15 17:00N 29°34' W 090°43'0 0.0
2018-May-15 16:30N 29°34' W 090°43'0 0.0
2018-May-15 16:00N 29°34' W 090°43'0 0.0
2018-May-15 15:30N 29°34' W 090°43'0 0.0
2018-May-15 15:00N 29°34' W 090°43'0 0.0
2018-May-15 14:30N 29°34' W 090°43'0 0.0
2018-May-15 14:00N 29°34' W 090°43'0 0.0
2018-May-15 13:30N 29°34' W 090°43'0 0.0
2018-May-15 13:00N 29°34' W 090°43'0 0.0
2018-May-15 12:30N 29°34' W 090°43'0 0.0
2018-May-15 12:00N 29°34' W 090°43'0 0.0
2018-May-15 11:30N 29°34' W 090°43'0 0.0
2018-May-15 11:00N 29°34' W 090°43'0 0.0
2018-May-15 10:30N 29°34' W 090°43'0 0.0
2018-May-15 10:00N 29°34' W 090°43'0 0.0
2018-May-15 09:30N 29°34' W 090°43'0 0.0
2018-May-15 09:00N 29°34' W 090°43'0 0.0
2018-May-15 08:30N 29°34' W 090°43'0 0.0
2018-May-15 08:00N 29°34' W 090°43'0 0.0
2018-May-15 07:30N 29°34' W 090°43'0 0.0
2018-May-15 07:00N 29°34' W 090°43'0 0.0
2018-May-15 06:30N 29°34' W 090°43'0 0.0
2018-May-15 06:00N 29°34' W 090°43'0 0.0
2018-May-15 05:30N 29°34' W 090°43'0 0.0
2018-May-15 05:00N 29°34' W 090°43'0 0.0
2018-May-15 04:30N 29°34' W 090°43'0 0.0
2018-May-15 04:00N 29°34' W 090°43'0 0.0
2018-May-15 03:30N 29°34' W 090°43'0 0.0
2018-May-15 03:00N 29°34' W 090°43'0 0.0
2018-May-15 02:30N 29°34' W 090°43'  
Track history (hours):
 
Tides and Currents Weather Stations Pressure Air Temp Water Temp Dewpoint Dewpoint Depression Visibility Wind Speed Wind Dir Waves Ship Positions

Joan Cenac

Owner: Caillou Island Towing Co., Inc., Houma, LA. More information available from US FCC via Universal Licensing System and Coast Guard Vessel Documentation Center.

Last reported at 2018-May-25 02:14 UTC. Time now 2018-May-27 03:19 UTC.
Position N 29°33' W 090°24'.

Length 30 m; draft 2.5 m.

Type: Towing. MMSI: 367156710.

Date/timePositionNaut miles runAvg speedWind from/ knotsBaromVisibWave heightAir tempDewpointWater temp
2018-May-25 02:14N 29°33' W 090°24'2 7.6
2018-May-25 02:00N 29°33' W 090°26'4 7.7
2018-May-25 01:30N 29°34' W 090°30'4 7.5
2018-May-25 01:00N 29°34' W 090°35'3 6.8
2018-May-25 00:30N 29°35' W 090°38'4 7.3
2018-May-25 00:00N 29°37' W 090°42'3 6.6
2018-May-24 23:30N 29°34' W 090°43'1 1.5
2018-May-24 23:00N 29°34' W 090°43'0 0.0
2018-May-22 19:32N 29°34' W 090°43'0 0.0
2018-May-22 19:30N 29°34' W 090°43'0 0.0
2018-May-22 19:00N 29°34' W 090°43'0 0.0
2018-May-22 18:31N 29°34' W 090°43'0 0.0
2018-May-22 18:00N 29°34' W 090°43'0 0.0
2018-May-22 17:30N 29°34' W 090°43'0 0.0
2018-May-22 17:00N 29°34' W 090°43'0 0.0
2018-May-22 16:30N 29°34' W 090°43'0 0.0
2018-May-22 16:00N 29°34' W 090°43'0 0.0
2018-May-22 15:30N 29°34' W 090°43'0 0.0
2018-May-22 15:00N 29°34' W 090°43'0 0.0
2018-May-22 14:30N 29°34' W 090°43'0 0.0
2018-May-22 14:00N 29°34' W 090°43'0 0.0
2018-May-22 13:30N 29°34' W 090°43'0 0.0
2018-May-22 13:00N 29°34' W 090°43'0 0.0
2018-May-22 12:30N 29°34' W 090°43'0 0.0
2018-May-22 12:00N 29°34' W 090°43'0 0.0
2018-May-22 11:30N 29°34' W 090°43'0 0.0
2018-May-22 11:00N 29°34' W 090°43'0 0.0
2018-May-22 10:31N 29°34' W 090°43'0 0.0
2018-May-22 10:00N 29°34' W 090°43'0 0.0
2018-May-22 09:30N 29°34' W 090°43'0 0.0
2018-May-22 09:00N 29°34' W 090°43'0 0.0
2018-May-22 08:30N 29°34' W 090°43'0 0.0
2018-May-22 08:00N 29°34' W 090°43'0 0.0
2018-May-22 07:30N 29°34' W 090°43'0 0.0
2018-May-22 07:01N 29°34' W 090°43'0 0.0
2018-May-22 06:31N 29°34' W 090°43'0 0.0
2018-May-22 06:00N 29°34' W 090°43'0 0.0
2018-May-22 05:31N 29°34' W 090°43'0 0.0
2018-May-22 05:01N 29°34' W 090°43'0 0.0
2018-May-22 04:30N 29°34' W 090°43'0 0.0
2018-May-22 04:00N 29°34' W 090°43'0 0.0
2018-May-22 03:30N 29°34' W 090°43'0 0.0
2018-May-22 03:00N 29°34' W 090°43'0 0.0
2018-May-22 02:31N 29°34' W 090°43'0 0.0
2018-May-22 02:00N 29°34' W 090°43'0 0.0
2018-May-22 01:30N 29°34' W 090°43'0 0.0
2018-May-22 01:00N 29°34' W 090°43'0 0.0
2018-May-22 00:29N 29°34' W 090°43'0 0.0
2018-May-22 00:00N 29°34' W 090°43'0 0.0
2018-May-21 23:30N 29°34' W 090°43'0 0.0
2018-May-21 23:00N 29°34' W 090°43'0 0.0
2018-May-21 22:31N 29°34' W 090°43'0 0.0
2018-May-21 22:00N 29°34' W 090°43'0 0.0
2018-May-21 21:30N 29°34' W 090°43'0 0.0
2018-May-21 21:00N 29°34' W 090°43'0 0.0
2018-May-21 20:30N 29°34' W 090°43'0 0.0
2018-May-21 20:00N 29°34' W 090°43'0 0.0
2018-May-21 19:30N 29°34' W 090°43'0 0.0
2018-May-21 19:00N 29°34' W 090°43'0 0.0
2018-May-21 18:30N 29°34' W 090°43'0 0.0
2018-May-20 05:40N 29°34' W 090°43'0 0.0
2018-May-20 05:30N 29°34' W 090°43'0 0.0
2018-May-20 05:00N 29°34' W 090°43'0 0.0
2018-May-20 04:30N 29°34' W 090°43'0 0.0
2018-May-20 04:00N 29°34' W 090°43'0 0.0
2018-May-20 03:30N 29°34' W 090°43'0 0.0
2018-May-20 03:00N 29°34' W 090°43'0 0.0
2018-May-20 02:30N 29°34' W 090°43'0 0.0
2018-May-20 02:00N 29°34' W 090°43'0 0.0
2018-May-20 01:30N 29°34' W 090°43'0 0.0
2018-May-20 01:00N 29°34' W 090°43'0 0.0
2018-May-20 00:30N 29°34' W 090°43'0 0.0
2018-May-20 00:00N 29°34' W 090°43'0 0.0
2018-May-19 23:30N 29°34' W 090°43'0 0.0
2018-May-19 23:00N 29°34' W 090°43'0 0.0
2018-May-19 22:30N 29°34' W 090°43'0 0.0
2018-May-19 22:00N 29°34' W 090°43'0 0.0
2018-May-19 21:30N 29°34' W 090°43'0 0.0
2018-May-19 21:00N 29°34' W 090°43'0 0.0
2018-May-19 20:30N 29°34' W 090°43'0 0.0
2018-May-19 20:00N 29°34' W 090°43'0 0.0
2018-May-19 19:30N 29°34' W 090°43'0 0.0
2018-May-19 19:00N 29°34' W 090°43'0 0.0
2018-May-19 18:30N 29°34' W 090°43'0 0.0
2018-May-19 18:00N 29°34' W 090°43'0 0.0
2018-May-19 17:30N 29°34' W 090°43'0 0.0
2018-May-19 17:00N 29°34' W 090°43'0 0.0
2018-May-19 16:30N 29°34' W 090°43'0 0.0
2018-May-19 16:00N 29°34' W 090°43'0 0.0
2018-May-19 15:30N 29°34' W 090°43'0 0.0
2018-May-19 15:00N 29°34' W 090°43'0 0.0
2018-May-19 14:30N 29°34' W 090°43'0 0.0
2018-May-19 14:00N 29°34' W 090°43'0 0.0
2018-May-19 13:30N 29°34' W 090°43'0 0.0
2018-May-19 13:00N 29°34' W 090°43'0 0.0
2018-May-19 12:30N 29°34' W 090°43'0 0.0
2018-May-19 12:00N 29°34' W 090°43'0 0.0
2018-May-19 11:30N 29°34' W 090°43'0 0.0
2018-May-19 11:00N 29°34' W 090°43'0 0.0
2018-May-19 10:30N 29°34' W 090°43'0 0.0
2018-May-19 10:00N 29°34' W 090°43'0 0.0
2018-May-19 09:30N 29°34' W 090°43'0 0.0
2018-May-19 09:00N 29°34' W 090°43'0 0.0
2018-May-19 08:30N 29°34' W 090°43'0 0.0
2018-May-19 08:00N 29°34' W 090°43'0 0.0
2018-May-19 07:30N 29°34' W 090°43'0 0.0
2018-May-19 07:00N 29°34' W 090°43'0 0.0
2018-May-19 06:30N 29°34' W 090°43'0 0.0
2018-May-19 06:00N 29°34' W 090°43'0 0.0
2018-May-19 05:30N 29°34' W 090°43'0 0.0
2018-May-19 05:00N 29°34' W 090°43'0 0.0
2018-May-19 04:30N 29°34' W 090°43'0 0.0
2018-May-19 04:00N 29°34' W 090°43'0 0.0
2018-May-19 03:30N 29°34' W 090°43'0 0.0
2018-May-19 03:00N 29°34' W 090°43'0 0.0
2018-May-19 02:27N 29°34' W 090°43'0 0.0
2018-May-19 02:00N 29°34' W 090°43'0 0.0
2018-May-19 01:30N 29°34' W 090°43'0 0.0
2018-May-19 01:00N 29°34' W 090°43'0 0.0
2018-May-19 00:30N 29°34' W 090°43'0 0.0
2018-May-19 00:00N 29°34' W 090°43'0 0.0
2018-May-18 23:29N 29°34' W 090°43'0 0.0
2018-May-18 23:00N 29°34' W 090°43'0 0.0
2018-May-18 22:30N 29°34' W 090°43'0 0.0
2018-May-18 22:00N 29°34' W 090°43'0 0.0
2018-May-18 21:30N 29°34' W 090°43'0 0.0
2018-May-18 21:00N 29°34' W 090°43'0 0.0
2018-May-18 20:30N 29°34' W 090°43'0 0.0
2018-May-18 20:00N 29°34' W 090°43'0 0.0
2018-May-18 19:30N 29°34' W 090°43'0 0.0
2018-May-18 19:00N 29°34' W 090°43'0 0.0
2018-May-18 18:30N 29°34' W 090°43'0 0.0
2018-May-18 18:00N 29°34' W 090°43'0 0.0
2018-May-18 17:30N 29°34' W 090°43'0 0.0
2018-May-18 17:00N 29°34' W 090°43'0 0.0
2018-May-18 16:30N 29°34' W 090°43'0 0.0
2018-May-18 16:00N 29°34' W 090°43'0 0.0
2018-May-18 15:30N 29°34' W 090°43'0 0.0
2018-May-18 15:00N 29°34' W 090°43'0 0.0
2018-May-18 14:30N 29°34' W 090°43'0 0.0
2018-May-18 14:00N 29°34' W 090°43'0 0.0
2018-May-18 13:30N 29°34' W 090°43'0 0.0
2018-May-18 13:00N 29°34' W 090°43'0 0.0
2018-May-18 12:30N 29°34' W 090°43'0 0.0
2018-May-18 12:00N 29°34' W 090°43'0 0.0
2018-May-18 11:30N 29°34' W 090°43'0 0.0
2018-May-18 11:00N 29°34' W 090°43'0 0.0
2018-May-18 10:30N 29°34' W 090°43'0 0.0
2018-May-18 10:00N 29°34' W 090°43'0 0.0
2018-May-18 09:30N 29°34' W 090°43'0 0.0
2018-May-18 09:00N 29°34' W 090°43'0 0.0
2018-May-18 08:30N 29°34' W 090°43'0 0.0
2018-May-18 08:00N 29°34' W 090°43'0 0.0
2018-May-18 07:30N 29°34' W 090°43'0 0.0
2018-May-18 07:00N 29°34' W 090°43'0 0.0
2018-May-18 06:30N 29°34' W 090°43'0 0.0
2018-May-18 06:00N 29°34' W 090°43'0 0.0
2018-May-18 05:30N 29°34' W 090°43'0 0.0
2018-May-18 05:00N 29°34' W 090°43'0 0.0
2018-May-18 04:30N 29°34' W 090°43'0 0.0
2018-May-18 04:00N 29°34' W 090°43'0 0.0
2018-May-18 03:30N 29°34' W 090°43'0 0.0
2018-May-18 03:00N 29°34' W 090°43'0 0.0
2018-May-18 02:28N 29°34' W 090°43'0 0.0
2018-May-18 02:00N 29°34' W 090°43'0 0.0
2018-May-18 01:30N 29°34' W 090°43'0 0.0
2018-May-18 01:01N 29°34' W 090°43'0 0.0
2018-May-18 00:31N 29°34' W 090°43'0 0.0
2018-May-18 00:01N 29°34' W 090°43'0 0.0
2018-May-17 23:30N 29°34' W 090°43'0 0.0
2018-May-17 23:01N 29°34' W 090°43'0 0.0
2018-May-17 22:30N 29°34' W 090°43'0 0.0
2018-May-17 22:00N 29°34' W 090°43'0 0.0
2018-May-17 21:31N 29°34' W 090°43'0 0.0
2018-May-17 21:00N 29°34' W 090°43'0 0.0
2018-May-17 20:30N 29°34' W 090°43'0 0.0
2018-May-17 20:00N 29°34' W 090°43'0 0.0
2018-May-17 19:31N 29°34' W 090°43'0 0.0
2018-May-17 19:01N 29°34' W 090°43'0 0.0
2018-May-17 18:31N 29°34' W 090°43'0 0.0
2018-May-17 18:00N 29°34' W 090°43'0 0.0
2018-May-17 17:31N 29°34' W 090°43'0 0.0
2018-May-17 17:01N 29°34' W 090°43'0 0.0
2018-May-17 16:31N 29°34' W 090°43'0 0.0
2018-May-17 16:01N 29°34' W 090°43'0 0.0
2018-May-17 15:31N 29°34' W 090°43'0 0.0
2018-May-17 15:00N 29°34' W 090°43'0 0.0
2018-May-17 14:30N 29°34' W 090°43'0 0.0
2018-May-17 14:01N 29°34' W 090°43'0 0.0
2018-May-17 13:31N 29°34' W 090°43'0 0.0
2018-May-17 13:00N 29°34' W 090°43'0 0.0
2018-May-17 12:30N 29°34' W 090°43'0 0.0
2018-May-17 12:01N 29°34' W 090°43'0 0.0
2018-May-17 11:30N 29°34' W 090°43'0 0.0
2018-May-17 11:00N 29°34' W 090°43'0 0.0
2018-May-17 10:30N 29°34' W 090°43'0 0.0
2018-May-17 10:01N 29°34' W 090°43'0 0.0
2018-May-17 09:30N 29°34' W 090°43'0 0.0
2018-May-17 09:00N 29°34' W 090°43'0 0.0
2018-May-17 08:31N 29°34' W 090°43'0 0.0
2018-May-17 08:01N 29°34' W 090°43'0 0.0
2018-May-17 07:30N 29°34' W 090°43'0 0.0
2018-May-17 07:00N 29°34' W 090°43'0 0.0
2018-May-17 06:31N 29°34' W 090°43'0 0.0
2018-May-17 06:00N 29°34' W 090°43'0 0.0
2018-May-17 05:30N 29°34' W 090°43'0 0.0
2018-May-17 05:00N 29°34' W 090°43'0 0.0
2018-May-17 04:30N 29°34' W 090°43'0 0.0
2018-May-17 04:00N 29°34' W 090°43'0 0.0
2018-May-17 03:30N 29°34' W 090°43'0 0.0
2018-May-17 03:01N 29°34' W 090°43'0 0.0
2018-May-17 02:30N 29°34' W 090°43'0 0.0
2018-May-17 02:00N 29°34' W 090°43'0 0.0
2018-May-17 01:30N 29°34' W 090°43'0 0.0
2018-May-17 01:00N 29°34' W 090°43'0 0.0
2018-May-17 00:30N 29°34' W 090°43'0 0.0
2018-May-17 00:00N 29°34' W 090°43'0 0.0
2018-May-16 23:30N 29°34' W 090°43'0 0.0
2018-May-16 23:00N 29°34' W 090°43'0 0.0
2018-May-16 22:30N 29°34' W 090°43'0 0.0
2018-May-16 22:00N 29°34' W 090°43'0 0.0
2018-May-16 21:30N 29°34' W 090°43'0 0.0
2018-May-16 21:00N 29°34' W 090°43'0 0.0
2018-May-16 20:30N 29°34' W 090°43'0 0.0
2018-May-16 20:00N 29°34' W 090°43'0 0.0
2018-May-16 19:30N 29°34' W 090°43'0 0.0
2018-May-16 19:00N 29°34' W 090°43'0 0.0
2018-May-16 18:30N 29°34' W 090°43'0 0.0
2018-May-16 18:00N 29°34' W 090°43'0 0.0
2018-May-16 17:30N 29°34' W 090°43'0 0.0
2018-May-16 17:00N 29°34' W 090°43'0 0.0
2018-May-16 16:29N 29°34' W 090°43'0 0.0
2018-May-16 16:00N 29°34' W 090°43'0 0.0
2018-May-16 15:30N 29°34' W 090°43'0 0.0
2018-May-16 15:00N 29°34' W 090°43'0 0.0
2018-May-16 14:30N 29°34' W 090°43'0 0.0
2018-May-16 14:00N 29°34' W 090°43'0 0.0
2018-May-16 13:30N 29°34' W 090°43'0 0.0
2018-May-16 13:00N 29°34' W 090°43'0 0.0
2018-May-16 12:30N 29°34' W 090°43'0 0.0
2018-May-16 12:00N 29°34' W 090°43'0 0.0
2018-May-16 11:30N 29°34' W 090°43'0 0.0
2018-May-16 11:00N 29°34' W 090°43'0 0.0
2018-May-16 10:30N 29°34' W 090°43'0 0.0
2018-May-16 10:00N 29°34' W 090°43'0 0.0
2018-May-16 09:30N 29°34' W 090°43'0 0.0
2018-May-16 09:00N 29°34' W 090°43'0 0.0
2018-May-16 08:30N 29°34' W 090°43'0 0.0
2018-May-16 08:00N 29°34' W 090°43'0 0.0
2018-May-16 07:30N 29°34' W 090°43'0 0.0
2018-May-16 07:00N 29°34' W 090°43'0 0.0
2018-May-16 06:30N 29°34' W 090°43'0 0.0
2018-May-16 06:00N 29°34' W 090°43'0 0.0
2018-May-16 05:30N 29°34' W 090°43'0 0.0
2018-May-16 05:00N 29°34' W 090°43'0 0.0
2018-May-16 04:30N 29°34' W 090°43'0 0.0
2018-May-16 04:00N 29°34' W 090°43'0 0.0
2018-May-16 03:30N 29°34' W 090°43'0 0.0
2018-May-16 03:00N 29°34' W 090°43'0 0.0
2018-May-16 02:30N 29°34' W 090°43'0 0.0
2018-May-16 02:00N 29°34' W 090°43'0 0.0
2018-May-16 01:30N 29°34' W 090°43'0 0.0
2018-May-16 01:00N 29°34' W 090°43'0 0.0
2018-May-16 00:30N 29°34' W 090°43'0 0.0
2018-May-16 00:00N 29°34' W 090°43'0 0.0
2018-May-15 23:30N 29°34' W 090°43'0 0.0
2018-May-15 23:00N 29°34' W 090°43'0 0.0
2018-May-15 22:30N 29°34' W 090°43'0 0.0
2018-May-15 22:00N 29°34' W 090°43'0 0.0
2018-May-15 21:30N 29°34' W 090°43'0 0.0
2018-May-15 21:00N 29°34' W 090°43'0 0.0
2018-May-15 20:30N 29°34' W 090°43'0 0.0
2018-May-15 20:00N 29°34' W 090°43'0 0.0
2018-May-15 19:30N 29°34' W 090°43'0 0.0
2018-May-15 19:00N 29°34' W 090°43'0 0.0
2018-May-15 18:30N 29°34' W 090°43'0 0.0
2018-May-15 18:00N 29°34' W 090°43'0 0.0
2018-May-15 17:30N 29°34' W 090°43'0 0.0
2018-May-15 17:00N 29°34' W 090°43'0 0.0
2018-May-15 16:30N 29°34' W 090°43'0 0.0
2018-May-15 16:00N 29°34' W 090°43'0 0.0
2018-May-15 15:30N 29°34' W 090°43'0 0.0
2018-May-15 15:00N 29°34' W 090°43'0 0.0
2018-May-15 14:30N 29°34' W 090°43'0 0.0
2018-May-15 14:00N 29°34' W 090°43'0 0.0
2018-May-15 13:30N 29°34' W 090°43'0 0.0
2018-May-15 13:00N 29°34' W 090°43'0 0.0
2018-May-15 12:30N 29°34' W 090°43'0 0.0
2018-May-15 12:00N 29°34' W 090°43'0 0.0
2018-May-15 11:30N 29°34' W 090°43'0 0.0
2018-May-15 11:00N 29°34' W 090°43'0 0.0
2018-May-15 10:30N 29°34' W 090°43'0 0.0
2018-May-15 10:00N 29°34' W 090°43'0 0.0
2018-May-15 09:30N 29°34' W 090°43'0 0.0
2018-May-15 09:00N 29°34' W 090°43'0 0.0
2018-May-15 08:30N 29°34' W 090°43'0 0.0
2018-May-15 08:00N 29°34' W 090°43'0 0.0
2018-May-15 07:30N 29°34' W 090°43'0 0.0
2018-May-15 07:00N 29°34' W 090°43'0 0.0
2018-May-15 06:30N 29°34' W 090°43'0 0.0
2018-May-15 06:00N 29°34' W 090°43'0 0.0
2018-May-15 05:30N 29°34' W 090°43'0 0.0
2018-May-15 05:00N 29°34' W 090°43'0 0.0
2018-May-15 04:30N 29°34' W 090°43'0 0.0
2018-May-15 04:00N 29°34' W 090°43'0 0.0
2018-May-15 03:30N 29°34' W 090°43'0 0.0
2018-May-15 03:00N 29°34' W 090°43'0 0.0
2018-May-15 02:30N 29°34' W 090°43'  

Dump ship's entire track history